createdAt,value
2023-04-23T00:00:57.961Z,5.30
2023-04-23T00:03:27.282Z,5.90
2023-04-23T00:05:56.675Z,5.30
2023-04-23T00:08:25.982Z,5.40
2023-04-23T00:10:54.602Z,5.40
2023-04-23T00:13:22.770Z,5.80
2023-04-23T00:15:51.210Z,5.30
2023-04-23T00:18:20.071Z,5.20
2023-04-23T00:20:47.979Z,5.10
2023-04-23T00:23:15.983Z,5.90
2023-04-23T00:25:43.949Z,5.90
2023-04-23T00:28:12.077Z,6.20
2023-04-23T00:30:40.552Z,5.90
2023-04-23T00:33:08.677Z,6.00
2023-04-23T00:35:36.794Z,6.00
2023-04-23T00:38:06.054Z,6.00
2023-04-23T00:40:34.165Z,6.40
2023-04-23T00:43:02.142Z,6.10
2023-04-23T00:45:30.412Z,6.20
2023-04-23T00:47:58.634Z,6.60
2023-04-23T00:50:26.756Z,5.90
2023-04-23T00:52:54.735Z,6.80
2023-04-23T00:55:22.800Z,6.20
2023-04-23T00:57:50.999Z,6.00
2023-04-23T01:00:20.392Z,6.20
2023-04-23T01:02:50.734Z,6.60
2023-04-23T01:05:19.202Z,7.10
2023-04-23T01:07:47.557Z,6.60
2023-04-23T01:10:16.921Z,6.20
2023-04-23T01:12:46.554Z,6.00
2023-04-23T01:15:14.546Z,6.50
2023-04-23T01:17:43.317Z,5.90
2023-04-23T01:20:11.629Z,6.40
2023-04-23T01:22:39.790Z,7.10
2023-04-23T01:25:08.738Z,5.70
2023-04-23T01:27:37.282Z,6.60
2023-04-23T01:30:06.088Z,6.40
2023-04-23T01:32:35.606Z,5.70
2023-04-23T01:35:04.977Z,7.90
2023-04-23T01:37:33.444Z,6.50
2023-04-23T01:40:01.470Z,6.20
2023-04-23T01:42:30.226Z,6.50
2023-04-23T01:44:58.156Z,5.60
2023-04-23T01:47:26.587Z,6.50
2023-04-23T01:49:54.919Z,6.80
2023-04-23T01:52:23.045Z,6.20
2023-04-23T01:54:51.781Z,8.30
2023-04-23T01:57:24.240Z,6.30
2023-04-23T02:00:04.104Z,6.20
2023-04-23T02:02:42.241Z,6.10
2023-04-23T02:05:12.888Z,6.20
2023-04-23T02:07:41.180Z,6.20
2023-04-23T02:10:10.286Z,7.30
2023-04-23T02:12:38.811Z,6.50
2023-04-23T02:15:07.784Z,6.60
2023-04-23T02:17:35.887Z,6.40
2023-04-23T02:20:04.487Z,6.80
2023-04-23T02:22:32.626Z,6.50
2023-04-23T02:25:02.049Z,6.50
2023-04-23T02:27:30.303Z,5.90
2023-04-23T02:29:58.393Z,6.90
2023-04-23T02:32:27.492Z,6.30
2023-04-23T02:34:56.141Z,6.30
2023-04-23T02:37:24.102Z,6.40
2023-04-23T02:39:52.271Z,6.80
2023-04-23T02:42:20.372Z,6.50
2023-04-23T02:44:48.760Z,6.60
2023-04-23T02:47:19.236Z,6.80
2023-04-23T02:49:47.375Z,6.60
2023-04-23T02:52:15.516Z,6.90
2023-04-23T02:54:43.670Z,7.00
2023-04-23T02:57:14.652Z,6.50
2023-04-23T03:02:11.135Z,6.60
2023-04-23T03:04:40.259Z,6.70
2023-04-23T03:07:08.699Z,6.80
2023-04-23T03:09:37.068Z,7.60
2023-04-23T03:12:05.198Z,7.40
2023-04-23T03:14:33.513Z,6.80
2023-04-23T03:17:01.700Z,6.00
2023-04-23T03:19:31.675Z,6.90
2023-04-23T03:22:00.879Z,6.60
2023-04-23T03:24:31.877Z,6.80
2023-04-23T03:27:00.199Z,6.40
2023-04-23T03:29:28.524Z,7.30
2023-04-23T03:31:56.962Z,6.20
2023-04-23T03:34:25.225Z,6.80
2023-04-23T03:36:53.272Z,6.00
2023-04-23T03:39:21.431Z,6.30
2023-04-23T03:41:54.667Z,7.10
2023-04-23T03:44:26.102Z,6.80
2023-04-23T03:49:22.478Z,6.10
2023-04-23T03:51:49.458Z,6.70
2023-04-23T03:54:17.882Z,6.70
2023-04-23T03:57:22.931Z,6.70
2023-04-23T03:59:56.109Z,6.10
2023-04-23T04:02:24.459Z,6.30
2023-04-23T04:04:54.282Z,6.40
2023-04-23T04:07:21.478Z,6.10
2023-04-23T04:09:48.854Z,5.90
2023-04-23T04:12:16.193Z,6.10
2023-04-23T04:14:43.465Z,6.00
2023-04-23T04:17:11.704Z,5.80
2023-04-23T04:19:38.555Z,6.00
2023-04-23T04:22:06.637Z,6.00
2023-04-23T04:24:34.989Z,5.80
2023-04-23T04:27:01.935Z,5.90
2023-04-23T04:29:29.296Z,6.40
2023-04-23T04:31:56.175Z,6.30
2023-04-23T04:34:23.184Z,6.30
2023-04-23T04:36:53.191Z,6.60
2023-04-23T04:39:20.180Z,6.00
2023-04-23T04:41:47.328Z,5.30
2023-04-23T04:44:15.796Z,5.70
2023-04-23T04:46:42.427Z,5.60
2023-04-23T04:49:10.278Z,6.40
2023-04-23T04:51:38.356Z,5.70
2023-04-23T04:54:05.713Z,6.30
2023-04-23T04:56:33.825Z,5.50
2023-04-23T04:59:00.723Z,5.70
2023-04-23T05:01:28.230Z,5.30
2023-04-23T05:03:55.689Z,4.90
2023-04-23T05:06:22.484Z,5.90
2023-04-23T05:08:49.369Z,5.30
2023-04-23T05:11:16.987Z,5.20
2023-04-23T05:13:45.568Z,5.90
2023-04-23T05:16:12.672Z,5.40
2023-04-23T05:18:40.630Z,5.60
2023-04-23T05:21:07.472Z,5.50
2023-04-23T05:23:34.814Z,5.50
2023-04-23T05:26:02.949Z,6.20
2023-04-23T05:28:30.384Z,6.10
2023-04-23T05:30:57.262Z,6.40
2023-04-23T05:33:24.993Z,6.10
2023-04-23T05:35:54.612Z,5.80
2023-04-23T05:38:21.140Z,6.20
2023-04-23T05:40:47.859Z,6.00
2023-04-23T05:43:14.581Z,5.50
2023-04-23T05:45:41.512Z,6.40
2023-04-23T05:48:08.271Z,6.60
2023-04-23T05:50:35.402Z,6.40
2023-04-23T05:53:02.449Z,6.30
2023-04-23T05:55:29.568Z,6.80
2023-04-23T05:57:56.123Z,6.20
2023-04-23T06:00:22.835Z,7.60
2023-04-23T06:02:49.771Z,6.90
2023-04-23T06:05:16.877Z,7.80
2023-04-23T06:07:43.943Z,6.70
2023-04-23T06:10:11.978Z,7.10
2023-04-23T06:12:39.295Z,6.00
2023-04-23T06:15:07.919Z,6.60
2023-04-23T06:17:35.821Z,6.40
2023-04-23T06:20:02.631Z,5.90
2023-04-23T06:22:30.685Z,6.00
2023-04-23T06:24:57.242Z,5.40
2023-04-23T06:27:23.914Z,5.20
2023-04-23T06:29:51.831Z,4.80
2023-04-23T06:32:20.514Z,5.40
2023-04-23T06:35:00.242Z,5.00
2023-04-23T06:37:29.473Z,5.70
2023-04-23T06:39:57.746Z,4.90
2023-04-23T06:42:24.282Z,5.50
2023-04-23T06:45:14.749Z,5.80
2023-04-23T06:47:42.431Z,5.40
2023-04-23T06:50:09.135Z,5.10
2023-04-23T06:52:36.721Z,5.50
2023-04-23T06:55:03.540Z,4.60
2023-04-23T06:57:30.442Z,5.00
2023-04-23T06:59:56.946Z,5.70
2023-04-23T07:02:26.332Z,6.00
2023-04-23T07:04:53.096Z,5.60
2023-04-23T07:07:20.468Z,5.70
2023-04-23T07:09:47.052Z,4.00
2023-04-23T07:12:13.687Z,5.20
2023-04-23T07:14:40.718Z,5.10
2023-04-23T07:17:07.398Z,4.70
2023-04-23T07:19:34.484Z,5.60
2023-04-23T07:22:01.051Z,5.30
2023-04-23T07:24:27.969Z,4.30
2023-04-23T07:26:54.575Z,5.00
2023-04-23T07:29:21.115Z,4.20
2023-04-23T07:31:47.711Z,4.20
2023-04-23T07:34:14.292Z,3.90
2023-04-23T07:36:40.862Z,3.20
2023-04-23T07:39:07.520Z,4.00
2023-04-23T07:41:34.715Z,3.40
2023-04-23T07:44:01.350Z,4.40
2023-04-23T07:46:28.443Z,4.00
2023-04-23T07:48:55.424Z,3.80
2023-04-23T07:51:25.926Z,3.70
2023-04-23T07:53:53.762Z,3.10
2023-04-23T07:56:21.825Z,3.20
2023-04-23T07:58:48.340Z,3.30
2023-04-23T08:01:15.595Z,3.20
2023-04-23T08:03:42.495Z,3.60
2023-04-23T08:06:11.552Z,3.20
2023-04-23T08:08:38.791Z,2.90
2023-04-23T08:11:06.257Z,2.50
2023-04-23T08:13:32.814Z,2.80
2023-04-23T08:15:59.792Z,2.70
2023-04-23T08:18:26.378Z,3.20
2023-04-23T08:20:53.551Z,2.60
2023-04-23T08:23:20.457Z,3.30
2023-04-23T08:25:47.008Z,2.20
2023-04-23T08:28:14.115Z,2.90
2023-04-23T08:30:40.898Z,2.30
2023-04-23T08:33:07.535Z,1.80
2023-04-23T08:35:34.394Z,1.50
2023-04-23T08:38:01.422Z,2.10
2023-04-23T08:40:29.979Z,2.10
2023-04-23T08:42:56.493Z,2.30
2023-04-23T08:45:23.626Z,2.10
2023-04-23T08:47:50.745Z,1.60
2023-04-23T08:50:19.123Z,2.80
2023-04-23T08:52:56.077Z,2.40
2023-04-23T08:55:22.954Z,1.90
2023-04-23T08:57:50.142Z,2.20
2023-04-23T09:00:20.501Z,2.40
2023-04-23T09:02:48.585Z,2.80
2023-04-23T09:05:15.419Z,2.40
2023-04-23T09:07:42.062Z,2.80
2023-04-23T09:10:10.671Z,2.70
2023-04-23T09:12:38.736Z,2.20
2023-04-23T09:15:10.183Z,2.70
2023-04-23T09:17:44.021Z,2.70
2023-04-23T09:20:11.272Z,3.00
2023-04-23T09:22:48.408Z,2.60
2023-04-23T09:25:17.546Z,2.90
2023-04-23T09:27:45.429Z,2.30
2023-04-23T09:30:12.509Z,2.80
2023-04-23T09:32:43.260Z,2.70
2023-04-23T09:35:13.107Z,2.70
2023-04-23T09:37:47.591Z,2.40
2023-04-23T09:40:15.291Z,2.70
2023-04-23T09:42:41.952Z,2.20
2023-04-23T09:45:11.692Z,2.00
2023-04-23T09:47:39.434Z,2.90
2023-04-23T09:50:06.705Z,2.80
2023-04-23T09:52:33.738Z,2.40
2023-04-23T09:55:04.832Z,2.50
2023-04-23T09:57:38.094Z,2.60
2023-04-23T10:00:18.332Z,2.90
2023-04-23T10:02:48.866Z,2.80
2023-04-23T10:07:50.313Z,2.60
2023-04-23T10:10:17.711Z,2.40
2023-04-23T10:15:16.759Z,2.10
2023-04-23T10:17:43.960Z,2.10
2023-04-23T10:20:12.042Z,2.00
2023-04-23T10:22:39.320Z,2.40
2023-04-23T10:25:09.492Z,2.80
2023-04-23T10:27:51.916Z,2.60
2023-04-23T10:30:19.248Z,2.80
2023-04-23T10:32:45.852Z,2.70
2023-04-23T10:35:12.407Z,2.10
2023-04-23T10:37:39.015Z,2.20
2023-04-23T10:40:13.585Z,2.60
2023-04-23T10:42:40.297Z,2.40
2023-04-23T10:45:23.125Z,2.30
2023-04-23T10:47:52.976Z,2.20
2023-04-23T10:50:23.672Z,2.20
2023-04-23T10:52:53.726Z,3.20
2023-04-23T10:55:25.273Z,2.50
2023-04-23T10:58:05.143Z,2.60
2023-04-23T11:00:40.950Z,2.20
2023-04-23T11:03:30.911Z,2.00
2023-04-23T11:06:01.646Z,2.50
2023-04-23T11:08:31.381Z,2.00
2023-04-23T11:10:58.861Z,1.90
2023-04-23T11:13:26.426Z,2.40
2023-04-23T11:16:15.777Z,2.50
2023-04-23T11:18:59.131Z,2.50
2023-04-23T11:22:03.286Z,2.30
2023-04-23T11:24:30.767Z,2.40
2023-04-23T11:26:57.505Z,2.20
2023-04-23T11:29:25.244Z,2.20
2023-04-23T11:32:01.610Z,2.60
2023-04-23T11:34:31.658Z,2.60
2023-04-23T11:36:58.952Z,2.40
2023-04-23T11:39:26.373Z,2.60
2023-04-23T11:41:53.668Z,1.90
2023-04-23T11:44:21.428Z,1.90
2023-04-23T11:46:49.092Z,1.90
2023-04-23T11:49:16.425Z,2.10
2023-04-23T11:51:44.848Z,2.00
2023-04-23T11:54:13.171Z,2.30
2023-04-23T11:56:40.133Z,2.00
2023-04-23T11:59:06.765Z,2.10
2023-04-23T12:01:40.938Z,2.30
2023-04-23T12:04:27.974Z,2.00
2023-04-23T12:06:56.205Z,2.30
2023-04-23T12:09:24.247Z,2.20
2023-04-23T12:11:50.783Z,2.70
2023-04-23T12:14:20.185Z,2.30
2023-04-23T12:16:51.441Z,2.40
2023-04-23T12:19:25.420Z,2.00
2023-04-23T12:21:59.998Z,2.30
2023-04-23T12:24:31.000Z,2.40
2023-04-23T12:26:59.899Z,2.20
2023-04-23T12:29:26.674Z,2.60
2023-04-23T12:31:53.371Z,2.60
2023-04-23T12:34:20.760Z,2.30
2023-04-23T12:36:50.400Z,2.40
2023-04-23T12:39:35.717Z,2.00
2023-04-23T12:42:06.424Z,2.40
2023-04-23T12:44:34.735Z,2.40
2023-04-23T12:47:06.720Z,2.50
2023-04-23T12:49:34.382Z,2.10
2023-04-23T12:52:02.043Z,2.10
2023-04-23T12:54:30.691Z,2.50
2023-04-23T12:57:02.183Z,2.20
2023-04-23T12:59:29.768Z,2.40
2023-04-23T13:01:57.054Z,2.40
2023-04-23T13:04:23.611Z,2.30
2023-04-23T13:06:50.796Z,2.50
2023-04-23T13:09:17.520Z,2.50
2023-04-23T13:11:46.295Z,2.20
2023-04-23T13:14:13.028Z,4.10
2023-04-23T13:16:39.710Z,2.50
2023-04-23T13:19:06.563Z,2.40
2023-04-23T13:21:33.178Z,2.40
2023-04-23T13:23:59.890Z,1.90
2023-04-23T13:26:31.330Z,2.30
2023-04-23T13:28:58.831Z,2.10
2023-04-23T13:31:25.570Z,1.90
2023-04-23T13:33:52.215Z,1.90
2023-04-23T13:36:18.984Z,1.50
2023-04-23T13:38:46.056Z,2.50
2023-04-23T13:41:12.611Z,2.20
2023-04-23T13:43:39.264Z,2.10
2023-04-23T13:46:06.183Z,1.90
2023-04-23T13:48:33.364Z,2.10
2023-04-23T13:51:00.670Z,1.90
2023-04-23T13:53:27.473Z,1.90
2023-04-23T13:55:55.320Z,1.90
2023-04-23T13:58:22.966Z,1.90
2023-04-23T14:00:50.032Z,2.20
2023-04-23T14:03:19.838Z,2.00
2023-04-23T14:05:46.883Z,1.80
2023-04-23T14:08:14.676Z,1.80
2023-04-23T14:10:43.551Z,2.40
2023-04-23T14:13:10.562Z,2.00
2023-04-23T14:15:37.307Z,2.00
2023-04-23T14:18:05.135Z,2.10
2023-04-23T14:20:31.720Z,2.20
2023-04-23T14:23:31.132Z,1.90
2023-04-23T14:25:58.562Z,1.90
2023-04-23T14:28:33.430Z,1.80
2023-04-23T14:31:00.564Z,2.00
2023-04-23T14:33:28.771Z,1.80
2023-04-23T14:35:55.657Z,1.80
2023-04-23T14:38:22.319Z,1.90
2023-04-23T14:40:48.859Z,2.40
2023-04-23T14:43:16.358Z,2.50
2023-04-23T14:45:43.416Z,2.40
2023-04-23T14:48:10.071Z,2.00
2023-04-23T14:50:37.186Z,2.50
2023-04-23T14:53:06.539Z,2.20
2023-04-23T14:55:33.367Z,2.40
2023-04-23T14:57:59.944Z,2.00
2023-04-23T15:00:26.743Z,1.90
2023-04-23T15:02:53.452Z,2.10
2023-04-23T15:05:20.573Z,2.00
2023-04-23T15:07:47.183Z,2.10
2023-04-23T15:10:14.458Z,2.20
2023-04-23T15:12:43.049Z,2.40
2023-04-23T15:15:36.907Z,2.30
2023-04-23T15:18:07.754Z,2.40
2023-04-23T15:20:34.700Z,2.20
2023-04-23T15:23:01.307Z,2.20
2023-04-23T15:25:28.987Z,2.30
2023-04-23T15:27:58.475Z,2.10
2023-04-23T15:30:25.546Z,2.20
2023-04-23T15:32:54.709Z,3.10
2023-04-23T15:35:24.909Z,2.70
2023-04-23T15:37:54.610Z,4.00
2023-04-23T15:40:21.298Z,3.20
2023-04-23T15:42:49.582Z,2.80
2023-04-23T15:45:16.359Z,3.70
2023-04-23T15:47:43.017Z,4.00
2023-04-23T15:50:10.411Z,8.20
2023-04-23T15:52:37.589Z,3.30
2023-04-23T15:55:05.363Z,5.80
2023-04-23T15:57:32.401Z,3.70
2023-04-23T15:59:59.409Z,3.20
2023-04-23T16:02:26.626Z,2.50
2023-04-23T16:06:06.612Z,2.60
2023-04-23T16:08:33.486Z,2.40
2023-04-23T16:11:00.234Z,2.60
2023-04-23T16:13:29.048Z,2.90
2023-04-23T16:15:56.258Z,3.10
2023-04-23T16:18:23.210Z,3.30
2023-04-23T16:20:50.243Z,2.90
2023-04-23T16:23:17.108Z,2.80
2023-04-23T16:25:44.412Z,3.00
2023-04-23T16:28:13.363Z,3.00
2023-04-23T16:30:40.486Z,3.30
2023-04-23T16:33:07.498Z,3.50
2023-04-23T16:35:34.379Z,4.00
2023-04-23T16:38:01.257Z,4.30
2023-04-23T16:40:28.856Z,5.20
2023-04-23T16:42:58.381Z,6.80
2023-04-23T16:45:25.212Z,8.70
2023-04-23T16:47:51.991Z,8.30
2023-04-23T16:50:18.806Z,28.60
2023-04-23T16:52:45.688Z,18.40
2023-04-23T16:55:12.596Z,20.70
2023-04-23T16:57:39.548Z,14.60
2023-04-23T17:00:08.017Z,10.80
2023-04-23T17:02:34.985Z,10.00
2023-04-23T17:05:02.018Z,9.70
2023-04-23T17:07:29.119Z,7.50
2023-04-23T17:09:55.938Z,7.50
2023-04-23T17:12:22.958Z,6.10
2023-04-23T17:14:49.829Z,8.00
2023-04-23T17:17:16.638Z,9.40
2023-04-23T17:19:43.437Z,9.70
2023-04-23T17:22:10.855Z,8.90
2023-04-23T17:24:39.154Z,7.20
2023-04-23T17:27:06.178Z,7.10
2023-04-23T17:29:32.909Z,7.40
2023-04-23T17:32:00.111Z,6.60
2023-04-23T17:34:26.981Z,7.10
2023-04-23T17:36:53.704Z,8.20
2023-04-23T17:39:22.950Z,7.50
2023-04-23T17:41:49.771Z,7.00
2023-04-23T17:44:16.633Z,6.10
2023-04-23T17:46:43.425Z,6.60
2023-04-23T17:49:10.714Z,7.20
2023-04-23T17:51:37.588Z,5.60
2023-04-23T17:54:04.901Z,9.10
2023-04-23T17:56:31.968Z,7.10
2023-04-23T17:58:58.718Z,8.90
2023-04-23T18:01:25.773Z,7.50
2023-04-23T18:03:53.696Z,7.20
2023-04-23T18:06:21.002Z,7.70
2023-04-23T18:08:47.777Z,6.60
2023-04-23T18:11:15.901Z,6.00
2023-04-23T18:13:43.140Z,6.50
2023-04-23T18:16:10.883Z,6.00
2023-04-23T18:18:37.778Z,5.00
2023-04-23T18:21:05.218Z,5.40
2023-04-23T18:23:32.104Z,5.40
2023-04-23T18:26:01.608Z,5.80
2023-04-23T18:28:28.970Z,6.60
2023-04-23T18:31:02.487Z,8.10
2023-04-23T18:33:46.032Z,14.30
2023-04-23T18:36:32.518Z,20.60
2023-04-23T18:38:59.338Z,23.60
2023-04-23T18:41:28.795Z,18.90
2023-04-23T18:43:55.709Z,10.40
2023-04-23T18:46:23.402Z,14.00
2023-04-23T18:49:26.098Z,11.40
2023-04-23T18:51:52.861Z,9.20
2023-04-23T18:54:19.568Z,7.70
2023-04-23T18:56:47.108Z,7.90
2023-04-23T18:59:14.090Z,7.10
2023-04-23T19:01:42.322Z,8.40
2023-04-23T19:04:09.232Z,6.90
2023-04-23T19:06:36.684Z,6.50
2023-04-23T19:09:03.608Z,6.20
2023-04-23T19:11:35.013Z,7.10
2023-04-23T19:14:02.077Z,7.50
2023-04-23T19:16:29.021Z,7.10
2023-04-23T19:18:56.025Z,7.80
2023-04-23T19:21:23.072Z,8.50
2023-04-23T19:23:51.712Z,6.80
2023-04-23T19:26:19.041Z,9.00
2023-04-23T19:28:45.879Z,9.30
2023-04-23T19:31:12.729Z,12.30
2023-04-23T19:33:43.671Z,12.40
2023-04-23T19:36:10.840Z,8.80
2023-04-23T19:38:38.097Z,8.70
2023-04-23T19:41:04.823Z,8.60
2023-04-23T19:43:31.519Z,7.70
2023-04-23T19:45:58.362Z,7.70
2023-04-23T19:48:25.234Z,6.90
2023-04-23T19:50:52.082Z,8.80
2023-04-23T19:53:18.825Z,8.60
2023-04-23T19:55:45.759Z,8.10
2023-04-23T19:58:12.912Z,8.70
2023-04-23T20:00:41.423Z,7.70
2023-04-23T20:03:08.796Z,7.10
2023-04-23T20:05:35.802Z,8.20
2023-04-23T20:08:04.549Z,6.70
2023-04-23T20:10:31.822Z,6.60
2023-04-23T20:12:59.923Z,7.20
2023-04-23T20:15:26.796Z,6.80
2023-04-23T20:17:53.553Z,7.20
2023-04-23T20:20:21.631Z,7.00
2023-04-23T20:22:48.645Z,6.90
2023-04-23T20:25:15.515Z,7.20
2023-04-23T20:27:42.262Z,7.20
2023-04-23T20:30:10.138Z,7.20
2023-04-23T20:32:36.966Z,7.70
2023-04-23T20:35:04.066Z,7.30
2023-04-23T20:37:30.979Z,8.50
2023-04-23T20:39:58.577Z,7.30
2023-04-23T20:42:25.917Z,7.40
2023-04-23T20:44:53.062Z,7.90
2023-04-23T20:47:19.930Z,7.80
2023-04-23T20:49:46.757Z,8.40
2023-04-23T20:52:14.697Z,7.00
2023-04-23T20:54:42.291Z,8.60
2023-04-23T20:57:09.050Z,7.60
2023-04-23T20:59:35.878Z,7.50
2023-04-23T21:02:02.908Z,7.80
2023-04-23T21:04:29.826Z,7.80
2023-04-23T21:06:56.833Z,7.80
2023-04-23T21:09:23.726Z,7.70
2023-04-23T21:11:51.053Z,7.60
2023-04-23T21:14:17.850Z,7.80
2023-04-23T21:16:44.594Z,7.30
2023-04-23T21:19:11.424Z,7.10
2023-04-23T21:21:38.190Z,7.80
2023-04-23T21:24:05.086Z,7.80
2023-04-23T21:26:32.051Z,7.70
2023-04-23T21:28:58.841Z,8.40
2023-04-23T21:31:46.772Z,7.90
2023-04-23T21:34:14.720Z,7.80
2023-04-23T21:36:41.878Z,7.90
2023-04-23T21:39:09.999Z,8.30
2023-04-23T21:41:41.450Z,8.90
2023-04-23T21:44:08.565Z,8.80
2023-04-23T21:46:35.477Z,8.20
2023-04-23T21:49:02.731Z,8.30
2023-04-23T21:51:30.143Z,9.20
2023-04-23T21:53:57.111Z,8.50
2023-04-23T21:56:24.176Z,8.70
2023-04-23T21:58:51.232Z,8.80
2023-04-23T22:01:18.467Z,7.90
2023-04-23T22:03:47.335Z,8.40
2023-04-23T22:06:15.689Z,8.90
2023-04-23T22:08:44.823Z,8.50
2023-04-23T22:11:12.163Z,7.10
2023-04-23T22:13:38.988Z,8.80
2023-04-23T22:16:13.348Z,8.90
2023-04-23T22:18:40.510Z,9.10
2023-04-23T22:21:07.701Z,8.40
2023-04-23T22:23:34.496Z,8.90
2023-04-23T22:26:01.309Z,8.20
2023-04-23T22:28:28.036Z,8.90
2023-04-23T22:30:54.834Z,8.50
2023-04-23T22:33:21.692Z,8.80
2023-04-23T22:35:48.422Z,9.20
2023-04-23T22:38:15.768Z,8.50
2023-04-23T22:40:42.524Z,7.80
2023-04-23T22:43:09.261Z,8.50
2023-04-23T22:45:36.037Z,8.00
2023-04-23T22:48:03.347Z,8.30
2023-04-23T22:50:30.971Z,9.30
2023-04-23T22:52:58.243Z,8.90
2023-04-23T22:55:25.086Z,8.50
2023-04-23T22:57:52.056Z,8.50
2023-04-23T23:00:18.967Z,8.20
2023-04-23T23:02:45.892Z,8.10
2023-04-23T23:05:12.982Z,7.90
2023-04-23T23:07:40.117Z,7.80
2023-04-23T23:10:08.852Z,9.60
2023-04-23T23:12:36.561Z,8.20
2023-04-23T23:15:03.712Z,8.40
2023-04-23T23:17:30.479Z,8.40
2023-04-23T23:19:57.344Z,7.30
2023-04-23T23:22:24.133Z,8.60
2023-04-23T23:24:51.077Z,8.20
2023-04-23T23:27:17.789Z,8.50
2023-04-23T23:29:44.865Z,8.80
2023-04-23T23:32:11.814Z,8.20
2023-04-23T23:34:38.566Z,7.50
2023-04-23T23:37:05.812Z,7.80
2023-04-23T23:39:32.567Z,7.90
2023-04-23T23:41:59.964Z,8.20
2023-04-23T23:44:27.167Z,7.50
2023-04-23T23:46:53.912Z,7.90
2023-04-23T23:49:20.948Z,8.30
2023-04-23T23:51:47.701Z,8.10
2023-04-23T23:54:14.612Z,8.70
2023-04-23T23:56:41.602Z,7.80
2023-04-23T23:59:08.417Z,7.70
